アンタナナリボ の空港の天気 - METARとTAF

イヴァト空港(アンタナナリボ) ( FMMI / TNR ) - マダガスカル アンタナナリボ
飛行場実況気象(Metar)
観測時間02/01 12:00 EAT (02/01 09:00 UTC)
風向・風速南東 6m/s
視程10km以上
天気現象
全天の4割程度の雲 雲底高度 520m
全天の4割程度の雲 雲底高度 610m
気温24℃
湿度65%
気圧1019hPa
METARFMMI 010900Z 13011KT 100V180 9999 SCT017 SCT020 24/17 Q1019 NOSIG
過去の天気等 Google飛行場航空写真 Wunderground天気予報

過去48時間のMETAR

飛行場予報(TAF)
発表時間: -
1日11時 EAT ~ 1日13時 EAT に徐々に
全天の4割程度の積乱雲 雲底高度 610m
1日16時 EAT ~ 1日23時 EAT に 確率 40% で一時的に
風向・風速不定 9m/s
視程4000m
天気現象雷雨
1日21時 EAT ~ 1日23時 EAT に徐々に
少しの雲 雲底高度 300m
全天の8割程度の雲 雲底高度 610m
1日23時 EAT ~ 2日6時 EAT に 確率 30% で一時的に
視程4500m
天気現象雨霧雨
2日11時 EAT ~ 2日13時 EAT に徐々に
全天の4割程度の積乱雲 雲底高度 610m
TAF COR
FMMI 010500Z 0106/0212 12008KT 9999 FEW017 BKN020
BECMG 0108/0110 SCT020CB
PROB40 TEMPO 0113/0120 VRB18KT 4000 TSRA
BECMG 0118/0120 FEW010 BKN020
PROB30 TEMPO 0120/0203 4500 RADZ
BECMG 0208/0210 SCT020CB